Time;durP1;ratioP1;P1;durP2;ratioP2;P2;SDS_P1;SDS_P2;PMS_P1;PMS_P2;Temp;Humidity;BMP_temperature;BMP_pressure;BME280_temperature;BME280_humidity;BME280_pressure;Samples;Min_cycle;Max_cycle;Signal;HPM_P1;HPM_P2
2023/01/30 00:02:06;;;;;;;;;14.00;13.00;;;;;-2.30;74.93;98561.47;4915052;28;104669;-77
2023/01/30 00:04:33;;;;;;;;;18.00;13.33;;;;;-2.30;74.15;98550.91;4911233;28;104346;-76
2023/01/30 00:07:00;;;;;;;;;22.00;18.67;;;;;-2.52;74.13;98502.44;4912653;28;102137;-76
2023/01/30 00:09:27;;;;;;;;;23.67;16.33;;;;;-2.81;74.93;98457.13;4914960;28;101959;-76
2023/01/30 00:11:54;;;;;;;;;18.33;14.67;;;;;-2.70;74.42;98459.75;4917961;28;102791;-76
2023/01/30 00:14:21;;;;;;;;;22.00;17.00;;;;;-2.79;75.08;98437.50;4914743;28;107627;-76
2023/01/30 00:16:48;;;;;;;;;13.00;9.33;;;;;-2.28;75.50;98516.38;4915291;28;102648;-76
2023/01/30 00:19:15;;;;;;;;;15.00;13.33;;;;;-2.27;74.90;98507.47;4915612;28;102183;-76
2023/01/30 00:21:42;;;;;;;;;19.67;14.00;;;;;-2.27;74.14;98507.47;4913609;28;102046;-76
2023/01/30 00:24:09;;;;;;;;;20.00;17.00;;;;;-2.75;74.61;98411.66;4913478;28;104168;-76
2023/01/30 00:26:36;;;;;;;;;11.00;9.33;;;;;-2.27;74.91;98496.88;4909706;28;104605;-76
2023/01/30 00:29:04;;;;;;;;;16.00;12.33;;;;;-2.58;73.73;98428.81;4889141;28;102117;-77
2023/01/30 00:31:30;;;;;;;;;17.67;14.67;;;;;-2.71;74.07;98403.38;4911786;28;102157;-76
2023/01/30 00:33:57;;;;;;;;;13.33;11.67;;;;;-2.27;73.46;98471.25;4913392;28;104127;-78
2023/01/30 00:36:24;;;;;;;;;16.00;11.00;;;;;-2.59;74.84;98405.97;4915241;28;103176;-75
2023/01/30 00:38:51;;;;;;;;;11.67;9.67;;;;;-2.50;73.41;98421.94;4912647;28;110100;-76
2023/01/30 00:41:18;;;;;;;;;19.00;13.00;;;;;-2.60;74.70;98409.56;4915664;28;103005;-76
2023/01/30 00:49:18;;;;;;;;;13.67;10.67;;;;;-2.68;74.49;98412.84;4913317;28;102188;-77
2023/01/30 00:51:46;;;;;;;;;13.00;10.33;;;;;-2.32;74.01;98460.16;4914151;28;102087;-76
2023/01/30 00:54:13;;;;;;;;;15.33;11.00;;;;;-2.29;73.23;98451.13;4912286;28;104077;-77
2023/01/30 00:56:40;;;;;;;;;18.33;10.67;;;;;-2.36;74.80;98445.50;4909127;28;102722;-77
2023/01/30 00:59:07;;;;;;;;;16.67;13.00;;;;;-2.40;73.86;98451.16;4907430;28;102384;-77
2023/01/30 01:01:34;;;;;;;;;18.33;15.33;;;;;-2.80;73.68;98372.34;4908698;28;102350;-77
2023/01/30 01:04:01;;;;;;;;;13.67;11.67;;;;;-2.38;73.78;98433.34;4907873;28;104339;-77
2023/01/30 01:06:28;;;;;;;;;6.33;6.33;;;;;-2.76;73.57;98375.59;4908750;28;102595;-76
2023/01/30 01:08:55;;;;;;;;;12.00;10.67;;;;;-2.50;74.11;98411.38;4894763;28;102105;-77
2023/01/30 01:11:24;;;;;;;;;15.33;10.33;;;;;-2.57;74.01;98409.34;4894286;28;102386;-77
2023/01/30 01:13:56;;;;;;;;;16.00;14.00;;;;;-2.56;74.42;98426.88;4892046;28;106455;-76
2023/01/30 01:16:24;;;;;;;;;22.67;16.33;;;;;-3.06;74.44;98349.78;4892789;28;102240;-77
2023/01/30 01:18:52;;;;;;;;;12.33;9.33;;;;;-2.63;75.22;98405.38;4892547;28;101919;-77
2023/01/30 01:21:20;;;;;;;;;10.00;10.00;;;;;-2.74;74.57;98386.88;4878359;28;102064;-77
2023/01/30 01:23:51;;;;;;;;;10.67;10.00;;;;;-2.98;74.40;98371.19;4893846;28;103864;-77
2023/01/30 01:26:19;;;;;;;;;17.00;12.33;;;;;-2.85;75.25;98400.13;4891287;28;102296;-77
2023/01/30 01:28:46;;;;;;;;;9.33;7.00;;;;;-3.40;75.49;98313.75;4895422;28;102041;-77
2023/01/30 01:31:15;;;;;;;;;11.67;8.67;;;;;-3.14;77.50;98362.75;4894043;28;102302;-77
2023/01/30 01:33:43;;;;;;;;;13.67;8.67;;;;;-3.44;76.13;98322.91;4894203;28;104223;-77
2023/01/30 01:36:10;;;;;;;;;13.00;11.00;;;;;-3.18;77.31;98382.47;4893924;28;102715;-77
2023/01/30 01:38:41;;;;;;;;;13.67;11.67;;;;;-3.65;78.42;98317.50;4894502;28;102194;-77
2023/01/30 01:41:11;;;;;;;;;17.67;14.67;;;;;-3.47;77.62;98358.34;4892795;28;102358;-77
2023/01/30 01:44:01;;;;;;;;;17.33;13.00;;;;;-3.38;77.86;98362.06;4886569;28;104042;-77
2023/01/30 01:46:37;;;;;;;;;13.00;10.00;;;;;-4.04;78.24;98268.59;4890583;28;102328;-76
2023/01/30 01:49:19;;;;;;;;;13.00;10.00;;;;;-4.03;78.37;98282.66;4889350;28;102309;-77
2023/01/30 01:52:11;;;;;;;;;15.00;10.00;;;;;-3.96;79.53;98299.72;4895464;28;102017;-77
2023/01/30 01:54:46;;;;;;;;;13.67;12.67;;;;;-3.78;80.42;98338.72;4892279;28;108791;-77
2023/01/30 01:57:36;;;;;;;;;14.00;12.00;;;;;-4.21;80.20;98259.34;4894590;28;102409;-77
2023/01/30 02:00:13;;;;;;;;;11.67;11.00;;;;;-3.70;79.56;98339.00;4892412;28;102335;-77
2023/01/30 02:02:48;;;;;;;;;16.33;13.00;;;;;-4.25;81.18;98251.78;4886224;28;102434;-77
2023/01/30 02:05:18;;;;;;;;;15.67;12.67;;;;;-3.96;80.66;98302.34;4892859;28;103993;-77
2023/01/30 02:08:46;;;;;;;;;15.00;12.33;;;;;-3.83;82.48;98313.66;4902320;28;102376;-77
2023/01/30 02:11:40;;;;;;;;;13.33;12.33;;;;;-3.88;82.68;98311.38;4909512;28;102119;-77
2023/01/30 02:14:39;;;;;;;;;14.00;9.33;;;;;-3.90;82.94;98302.72;4912661;28;102831;-77
2023/01/30 02:17:29;;;;;;;;;14.33;13.00;;;;;-3.94;83.16;98295.13;4913711;28;107103;-77
2023/01/30 02:20:41;;;;;;;;;12.67;12.67;;;;;-3.99;83.20;98290.22;4914271;28;102361;-77
2023/01/30 02:23:57;;;;;;;;;15.00;9.67;;;;;-4.01;83.46;98280.75;4909237;28;102475;-77
2023/01/30 02:26:46;;;;;;;;;10.00;8.33;;;;;-4.00;84.69;98280.59;4916391;28;102311;-76
2023/01/30 02:29:22;;;;;;;;;12.00;7.00;;;;;-3.99;84.93;98279.66;4914481;28;104237;-76
2023/01/30 02:32:02;;;;;;;;;10.67;9.33;;;;;-4.19;85.26;98235.50;4915631;28;102386;-77
2023/01/30 02:34:47;;;;;;;;;7.00;6.00;;;;;-4.38;85.12;98187.72;4913813;28;101901;-75
2023/01/30 02:37:19;;;;;;;;;11.33;7.33;;;;;-3.93;84.32;98257.22;4917217;28;103312;-76
2023/01/30 02:40:04;;;;;;;;;4.33;3.67;;;;;-3.90;84.85;98257.81;4912059;28;104137;-76
2023/01/30 02:42:49;;;;;;;;;12.67;10.00;;;;;-3.94;85.01;98251.09;4912878;28;103596;-76
2023/01/30 02:45:33;;;;;;;;;10.00;9.00;;;;;-3.80;85.67;98257.94;4915266;28;102245;-77
2023/01/30 02:48:04;;;;;;;;;16.00;10.67;;;;;-3.87;85.35;98225.88;4915406;28;102481;-77
2023/01/30 02:50:40;;;;;;;;;12.67;10.00;;;;;-3.76;85.36;98233.81;4915936;28;104010;-76
2023/01/30 02:53:07;;;;;;;;;12.00;10.00;;;;;-3.96;84.93;98192.28;4916610;28;106534;-77
2023/01/30 02:55:35;;;;;;;;;11.67;10.67;;;;;-4.16;85.10;98156.06;4913883;28;102051;-77
2023/01/30 02:58:03;;;;;;;;;15.33;12.00;;;;;-4.05;85.18;98148.13;4914147;28;102348;-76
2023/01/30 03:01:02;;;;;;;;;11.33;9.67;;;;;-4.29;85.32;98108.69;4916389;28;104094;-77
2023/01/30 03:03:43;;;;;;;;;17.67;16.67;;;;;-3.76;84.44;98202.13;4908336;28;102221;-77
2023/01/30 03:06:39;;;;;;;;;14.00;10.00;;;;;-3.70;83.97;98196.34;4913998;28;101952;-76
2023/01/30 03:09:20;;;;;;;;;19.33;15.67;;;;;-3.64;85.00;98211.69;4906721;28;103008;-76
2023/01/30 03:12:04;;;;;;;;;15.33;13.00;;;;;-3.64;84.42;98206.41;4910252;28;104222;-77
2023/01/30 03:14:47;;;;;;;;;15.00;12.67;;;;;-4.26;83.84;98097.03;4910921;28;102225;-75
2023/01/30 03:17:17;;;;;;;;;11.00;8.33;;;;;-3.96;84.53;98136.81;4914174;28;102223;-75
2023/01/30 03:19:44;;;;;;;;;19.00;15.00;;;;;-3.73;83.43;98158.75;4915927;28;102999;-75
2023/01/30 03:22:11;;;;;;;;;13.00;10.00;;;;;-4.03;83.59;98092.56;4912695;28;104045;-76
2023/01/30 03:24:39;;;;;;;;;15.00;10.00;;;;;-3.57;84.01;98175.06;4913151;28;102522;-75
2023/01/30 03:27:09;;;;;;;;;19.67;15.00;;;;;-3.61;82.92;98158.63;4893563;28;102340;-75
2023/01/30 03:29:37;;;;;;;;;19.00;18.00;;;;;-3.74;83.25;98133.31;4911366;28;102446;-76
2023/01/30 03:32:05;;;;;;;;;12.67;9.00;;;;;-3.62;82.42;98141.09;4907414;28;104114;-75
2023/01/30 03:34:32;;;;;;;;;19.67;15.00;;;;;-3.65;82.28;98138.69;4908410;28;102598;-76
2023/01/30 03:36:59;;;;;;;;;18.00;15.00;;;;;-3.78;81.94;98113.41;4914093;28;102204;-76
2023/01/30 03:39:26;;;;;;;;;14.67;13.00;;;;;-3.36;82.02;98183.06;4913500;28;102108;-76
2023/01/30 03:41:53;;;;;;;;;20.00;14.00;;;;;-3.71;82.36;98128.63;4911348;28;108550;-76
2023/01/30 03:44:20;;;;;;;;;24.33;16.67;;;;;-3.53;82.82;98147.44;4908710;28;102215;-77
2023/01/30 03:46:47;;;;;;;;;15.67;15.33;;;;;-3.87;81.91;98093.03;4913393;28;102446;-76
2023/01/30 03:49:14;;;;;;;;;13.00;11.00;;;;;-3.82;81.76;98089.03;4913189;28;102063;-76
2023/01/30 03:51:41;;;;;;;;;17.67;14.67;;;;;-3.37;81.64;98158.41;4912143;28;103983;-76
2023/01/30 03:54:08;;;;;;;;;19.67;13.00;;;;;-3.51;82.95;98137.56;4909490;28;105309;-76
2023/01/30 03:56:35;;;;;;;;;19.00;16.00;;;;;-3.93;81.76;98065.31;4912863;28;102493;-77
2023/01/30 03:59:03;;;;;;;;;19.33;18.00;;;;;-3.98;82.02;98035.78;4910534;28;102194;-76
2023/01/30 04:01:30;;;;;;;;;13.00;10.33;;;;;-3.35;81.33;98142.44;4909879;28;104052;-76
2023/01/30 04:03:57;;;;;;;;;11.33;9.67;;;;;-3.33;82.11;98132.59;4914805;28;102350;-76
2023/01/30 04:06:24;;;;;;;;;13.00;12.33;;;;;-3.30;82.13;98124.41;4910910;28;102021;-77
2023/01/30 04:08:52;;;;;;;;;16.33;14.00;;;;;-3.28;80.76;98122.47;4915185;28;102465;-77
2023/01/30 04:11:20;;;;;;;;;13.67;12.67;;;;;-3.48;81.47;98088.94;4913585;28;104030;-77
2023/01/30 04:13:47;;;;;;;;;14.33;13.67;;;;;-3.25;81.59;98117.78;4910843;28;102155;-76
2023/01/30 04:16:19;;;;;;;;;17.33;15.00;;;;;-3.21;80.54;98107.78;4910639;28;102526;-77
2023/01/30 04:18:46;;;;;;;;;16.67;11.00;;;;;-3.15;81.35;98097.53;4915288;28;102333;-77
2023/01/30 04:21:13;;;;;;;;;15.00;13.00;;;;;-3.47;80.93;98043.03;4910914;28;104060;-77
2023/01/30 04:23:41;;;;;;;;;17.00;15.33;;;;;-3.13;80.08;98100.06;4912300;28;102962;-76
2023/01/30 04:26:09;;;;;;;;;16.67;14.00;;;;;-3.12;80.27;98088.50;4913702;28;102337;-77
2023/01/30 04:28:36;;;;;;;;;16.67;14.33;;;;;-3.11;79.42;98084.91;4914064;28;102240;-77
2023/01/30 04:31:03;;;;;;;;;19.67;18.33;;;;;-3.12;80.03;98085.88;4913470;28;104102;-77
2023/01/30 04:33:34;;;;;;;;;14.00;11.00;;;;;-3.26;79.93;98057.09;4912505;28;102465;-77
2023/01/30 04:36:03;;;;;;;;;18.33;15.33;;;;;-3.28;79.40;98061.66;4914787;28;102390;-76
2023/01/30 04:38:31;;;;;;;;;22.00;17.00;;;;;-3.49;80.40;98016.75;4917630;28;102958;-77
2023/01/30 04:40:59;;;;;;;;;17.67;14.33;;;;;-3.11;79.31;98078.78;4917192;28;104013;-77
2023/01/30 04:43:28;;;;;;;;;17.67;14.67;;;;;-3.19;78.85;98060.91;4912724;28;102755;-77
2023/01/30 04:45:55;;;;;;;;;25.00;19.00;;;;;-3.43;80.12;98018.03;4913234;28;102340;-77
2023/01/30 04:48:23;;;;;;;;;23.00;16.33;;;;;-3.06;79.26;98060.72;4911339;28;102149;-77
2023/01/30 04:50:53;;;;;;;;;21.33;16.67;;;;;-3.22;79.72;98035.56;4901638;28;104160;-77
2023/01/30 04:53:20;;;;;;;;;19.67;15.33;;;;;-3.20;79.22;98044.19;4912757;28;102664;-77
2023/01/30 04:55:47;;;;;;;;;22.33;17.00;;;;;-3.62;79.59;97971.19;4909283;28;102165;-76
2023/01/30 04:58:16;;;;;;;;;15.67;9.00;;;;;-3.00;78.38;98074.25;4915028;28;103612;-76
2023/01/30 05:00:43;;;;;;;;;17.33;14.33;;;;;-3.10;79.28;98057.47;4910225;28;104060;-77
2023/01/30 05:03:10;;;;;;;;;19.67;16.33;;;;;-2.94;78.34;98071.09;4914414;28;102281;-76
2023/01/30 05:05:37;;;;;;;;;20.00;16.00;;;;;-3.32;78.16;98004.75;4912102;28;102004;-76
2023/01/30 05:08:04;;;;;;;;;19.00;15.33;;;;;-3.30;77.84;97998.38;4910171;28;103841;-76
2023/01/30 05:10:31;;;;;;;;;22.00;16.00;;;;;-3.01;79.08;98046.13;4916234;28;104347;-77
2023/01/30 05:13:02;;;;;;;;;18.33;15.33;;;;;-3.19;78.53;97989.53;4913225;28;102749;-76
2023/01/30 05:15:30;;;;;;;;;19.00;17.67;;;;;-2.93;78.47;98043.69;4915551;28;103778;-76
2023/01/30 05:17:57;;;;;;;;;21.33;19.33;;;;;-2.95;78.75;98040.31;4912735;28;102489;-76
2023/01/30 05:20:24;;;;;;;;;22.33;11.67;;;;;-3.16;78.00;97984.00;4905298;28;104020;-77
2023/01/30 05:22:51;;;;;;;;;25.67;21.33;;;;;-3.18;78.40;97985.91;4911887;28;102555;-76
2023/01/30 05:25:18;;;;;;;;;20.00;17.33;;;;;-2.87;77.84;98032.56;4912977;28;102357;-77
2023/01/30 05:27:46;;;;;;;;;20.00;17.00;;;;;-3.30;78.04;97961.38;4913814;28;102108;-78
2023/01/30 05:30:13;;;;;;;;;22.33;16.00;;;;;-2.81;79.09;98025.91;4911040;28;104021;-77
2023/01/30 05:32:42;;;;;;;;;23.00;19.67;;;;;-2.83;78.28;98011.97;4914238;28;102602;-77
2023/01/30 05:35:09;;;;;;;;;31.00;23.67;;;;;-2.86;77.67;98006.97;4910280;28;101925;-72
2023/01/30 05:37:36;;;;;;;;;32.00;25.00;;;;;-3.23;77.82;97941.38;4916515;28;102039;-73
2023/01/30 05:40:05;;;;;;;;;22.33;18.33;;;;;-2.83;77.16;98002.25;4915466;28;104059;-71
2023/01/30 05:42:32;;;;;;;;;20.33;17.00;;;;;-2.85;77.66;97990.97;4916194;28;102401;-72
2023/01/30 05:44:59;;;;;;;;;20.00;17.67;;;;;-2.78;77.35;97989.47;4911476;28;102271;-72
2023/01/30 05:47:26;;;;;;;;;19.33;16.67;;;;;-2.79;77.61;97995.72;4919027;28;102024;-72
2023/01/30 05:49:53;;;;;;;;;26.00;20.67;;;;;-2.77;76.50;98012.31;4907429;28;104019;-72
2023/01/30 05:52:20;;;;;;;;;25.00;19.67;;;;;-2.80;77.50;98002.00;4914702;28;102293;-71
2023/01/30 05:54:47;;;;;;;;;23.00;20.00;;;;;-2.75;77.23;97978.59;4912958;28;101906;-71
2023/01/30 05:57:13;;;;;;;;;16.00;13.33;;;;;-2.76;77.40;97965.53;4917125;28;101995;-72
2023/01/30 05:59:40;;;;;;;;;29.33;22.67;;;;;-2.71;77.47;97956.22;4908948;28;104922;-72
2023/01/30 06:02:07;;;;;;;;;18.00;16.67;;;;;-2.64;75.82;97945.06;4915336;28;102078;-71
2023/01/30 06:04:36;;;;;;;;;23.33;18.00;;;;;-2.68;76.85;97941.88;4917127;28;102140;-72
2023/01/30 06:07:03;;;;;;;;;24.33;21.33;;;;;-2.64;75.58;97942.44;4914000;28;102581;-72
2023/01/30 06:09:30;;;;;;;;;20.00;17.67;;;;;-2.65;75.32;97936.31;4918464;28;108528;-72
2023/01/30 06:11:57;;;;;;;;;24.00;17.33;;;;;-2.56;76.98;97939.94;4910927;28;103541;-72
2023/01/30 06:14:24;;;;;;;;;21.33;16.67;;;;;-2.59;75.13;97941.06;4913265;28;102435;-72
2023/01/30 06:16:51;;;;;;;;;20.67;18.67;;;;;-2.58;76.20;97944.56;4932846;28;102005;-71
2023/01/30 06:19:18;;;;;;;;;20.67;19.33;;;;;-2.58;75.38;97933.97;4914192;28;103806;-71
2023/01/30 06:21:45;;;;;;;;;20.00;19.00;;;;;-2.58;76.31;97921.56;4915887;28;102906;-71
2023/01/30 06:24:12;;;;;;;;;24.67;20.67;;;;;-2.54;75.19;97935.38;4917250;28;102298;-71
2023/01/30 06:26:39;;;;;;;;;23.33;20.00;;;;;-2.59;76.68;97924.34;4918725;28;102270;-71
2023/01/30 06:29:06;;;;;;;;;23.67;20.33;;;;;-2.54;76.49;97912.38;4915265;28;104022;-73
2023/01/30 06:31:33;;;;;;;;;27.67;20.67;;;;;-2.54;75.00;97916.84;4918729;28;102408;-71
2023/01/30 06:34:00;;;;;;;;;30.67;23.00;;;;;-2.58;75.51;97912.81;4918926;28;103870;-71
2023/01/30 06:36:27;;;;;;;;;32.00;24.00;;;;;-2.53;75.11;97913.22;4917006;28;102065;-72
2023/01/30 06:38:54;;;;;;;;;19.33;17.67;;;;;-2.50;75.52;97918.25;4917808;28;104438;-72
2023/01/30 06:41:21;;;;;;;;;26.00;22.33;;;;;-2.53;75.01;97921.16;4916450;28;102639;-71
2023/01/30 06:43:48;;;;;;;;;24.00;18.33;;;;;-2.51;74.61;97906.81;4917277;28;102123;-71
2023/01/30 06:46:15;;;;;;;;;26.33;21.33;;;;;-2.46;74.30;97911.69;4917467;28;104371;-71
2023/01/30 06:48:42;;;;;;;;;29.00;23.00;;;;;-2.47;74.51;97904.72;4915829;28;104160;-71
2023/01/30 06:51:09;;;;;;;;;24.67;17.67;;;;;-2.45;75.84;97900.16;4917641;28;102646;-71
2023/01/30 06:53:36;;;;;;;;;26.00;17.33;;;;;-2.44;75.09;97897.38;4918109;28;102167;-72
2023/01/30 06:56:03;;;;;;;;;28.33;24.33;;;;;-2.39;74.09;97899.59;4919462;28;102354;-71
2023/01/30 06:58:30;;;;;;;;;30.00;22.00;;;;;-2.41;73.83;97896.25;4919060;28;108588;-70
2023/01/30 07:00:57;;;;;;;;;24.67;17.00;;;;;-2.46;73.80;97879.94;4916977;28;102436;-71
2023/01/30 07:03:24;;;;;;;;;30.67;23.33;;;;;-2.40;73.79;97897.94;4894732;28;111698;-71
2023/01/30 07:05:51;;;;;;;;;20.33;17.33;;;;;-2.37;73.21;97900.28;4916901;28;102299;-71
2023/01/30 07:08:18;;;;;;;;;29.33;24.67;;;;;-2.40;73.57;97897.94;4915820;28;104222;-71
2023/01/30 07:10:45;;;;;;;;;30.33;25.33;;;;;-2.38;74.29;97888.84;4917540;28;102652;-71
2023/01/30 07:13:13;;;;;;;;;24.67;24.00;;;;;-2.36;74.62;97883.44;4917165;28;102224;-71
2023/01/30 07:15:40;;;;;;;;;33.67;27.00;;;;;-2.32;73.59;97885.66;4918582;28;102378;-71
2023/01/30 07:18:07;;;;;;;;;30.33;21.67;;;;;-2.26;73.75;97889.59;4916592;28;104168;-72
2023/01/30 07:20:34;;;;;;;;;30.33;25.67;;;;;-2.23;73.00;97875.22;4919084;28;102377;-71
2023/01/30 07:23:01;;;;;;;;;24.67;19.33;;;;;-2.17;73.52;97869.38;4917607;28;103232;-71
2023/01/30 07:25:28;;;;;;;;;32.67;29.00;;;;;-2.22;73.40;97856.56;4916690;28;102381;-71
2023/01/30 07:28:00;;;;;;;;;31.33;25.00;;;;;-2.22;73.29;97861.00;4915481;28;104001;-71
2023/01/30 07:30:30;;;;;;;;;36.33;29.00;;;;;-2.17;73.58;97862.28;4918198;28;102412;-71
2023/01/30 07:32:59;;;;;;;;;26.67;24.00;;;;;-2.13;73.34;97861.00;4917245;28;102150;-71
2023/01/30 07:35:28;;;;;;;;;30.00;28.33;;;;;-2.41;73.20;97791.22;4916765;28;102079;-71
2023/01/30 07:37:55;;;;;;;;;22.00;15.67;;;;;-2.02;73.45;97844.13;4915210;28;104182;-72
2023/01/30 07:40:23;;;;;;;;;34.33;27.00;;;;;-2.06;73.21;97848.03;4917516;28;102582;-71
2023/01/30 07:42:57;;;;;;;;;30.33;27.00;;;;;-1.98;72.57;97832.28;4913533;28;106348;-71
2023/01/30 07:45:27;;;;;;;;;26.67;20.67;;;;;-1.97;72.92;97832.13;4917455;28;102233;-71
2023/01/30 07:47:54;;;;;;;;;40.33;29.00;;;;;-2.01;72.56;97825.44;4916299;28;104105;-71
2023/01/30 07:50:21;;;;;;;;;31.33;26.33;;;;;-1.89;73.21;97842.03;4916338;28;102289;-71
2023/01/30 07:52:48;;;;;;;;;30.00;24.67;;;;;-2.00;73.10;97831.59;4916931;28;101832;-71
2023/01/30 07:55:15;;;;;;;;;32.67;26.33;;;;;-1.92;72.64;97843.13;4915166;28;102059;-71
2023/01/30 07:57:42;;;;;;;;;39.00;27.00;;;;;-1.87;72.81;97830.31;4917035;28;104137;-71
2023/01/30 08:00:11;;;;;;;;;29.00;26.00;;;;;-1.85;72.03;97830.97;4914442;28;102247;-71
2023/01/30 08:02:37;;;;;;;;;29.33;24.33;;;;;-1.80;72.40;97815.50;4914184;28;101955;-71
2023/01/30 08:05:05;;;;;;;;;30.33;23.00;;;;;-1.80;72.25;97820.78;4919569;28;101930;-72
2023/01/30 08:07:32;;;;;;;;;27.67;24.33;;;;;-1.74;72.56;97827.34;4914490;28;108750;-71
2023/01/30 08:09:59;;;;;;;;;21.67;20.00;;;;;-1.67;72.16;97817.03;4913939;28;102979;-72
2023/01/30 08:12:27;;;;;;;;;33.00;24.33;;;;;-1.62;71.00;97820.88;4912474;28;101887;-71
2023/01/30 08:14:55;;;;;;;;;36.00;29.00;;;;;-1.61;72.24;97838.47;4915498;28;101922;-72
2023/01/30 08:17:22;;;;;;;;;34.00;25.67;;;;;-1.62;72.53;97841.28;4915933;28;104029;-71
2023/01/30 08:19:49;;;;;;;;;28.33;25.67;;;;;-1.60;71.57;97839.31;4916050;28;103487;-71
2023/01/30 08:22:16;;;;;;;;;30.00;22.67;;;;;-1.58;71.37;97827.59;4907625;28;102059;-71
2023/01/30 08:24:43;;;;;;;;;31.67;25.00;;;;;-1.56;71.06;97824.78;4916315;28;102265;-71
2023/01/30 08:27:10;;;;;;;;;36.33;23.33;;;;;-1.52;71.77;97799.66;4916382;28;105423;-70
2023/01/30 08:29:37;;;;;;;;;27.67;24.00;;;;;-1.51;71.20;97785.44;4914965;28;102474;-72
2023/01/30 08:32:04;;;;;;;;;34.00;24.67;;;;;-1.47;70.15;97786.81;4917229;28;102176;-71
2023/01/30 08:34:31;;;;;;;;;29.00;27.00;;;;;-1.33;71.04;97788.13;4917340;28;102415;-71
2023/01/30 08:36:58;;;;;;;;;31.33;26.00;;;;;-1.22;69.92;97790.59;4913019;28;104064;-71
2023/01/30 08:39:25;;;;;;;;;31.00;21.00;;;;;-1.15;70.45;97778.41;4914292;28;102114;-70
2023/01/30 08:41:52;;;;;;;;;30.00;22.00;;;;;-1.07;70.44;97784.66;4907239;28;103334;-70
2023/01/30 08:44:19;;;;;;;;;30.33;26.00;;;;;-1.11;70.45;97783.28;4913560;28;102410;-71
2023/01/30 08:46:46;;;;;;;;;23.67;23.33;;;;;-1.42;70.67;97726.22;4912593;28;104042;-70
2023/01/30 08:49:13;;;;;;;;;31.00;26.33;;;;;-1.12;70.73;97775.44;4914053;28;102905;-70
2023/01/30 08:51:39;;;;;;;;;22.00;20.67;;;;;-1.09;70.13;97797.25;4912793;28;102242;-70
2023/01/30 08:54:06;;;;;;;;;27.00;21.33;;;;;-1.14;69.33;97786.22;4915569;28;102278;-71
2023/01/30 08:56:34;;;;;;;;;34.00;26.00;;;;;-1.15;70.57;97786.38;4915819;28;104232;-70
2023/01/30 08:59:01;;;;;;;;;29.33;25.33;;;;;-1.26;70.39;97787.38;4915243;28;102624;-70
2023/01/30 09:01:28;;;;;;;;;30.00;26.00;;;;;-1.18;71.02;97787.50;4912940;28;101905;-71
2023/01/30 09:03:55;;;;;;;;;27.33;23.67;;;;;-1.18;71.68;97797.28;4914464;28;102846;-70
2023/01/30 09:06:22;;;;;;;;;24.33;22.00;;;;;-1.21;70.60;97789.59;4913990;28;104020;-71
2023/01/30 09:08:51;;;;;;;;;27.67;23.33;;;;;-1.10;71.48;97774.34;4915808;28;102538;-72
2023/01/30 09:11:18;;;;;;;;;31.67;25.00;;;;;-1.06;71.72;97780.19;4911650;28;102249;-69
2023/01/30 09:13:46;;;;;;;;;17.33;14.00;;;;;-1.00;71.73;97780.44;4914855;28;112476;-72
2023/01/30 09:16:15;;;;;;;;;28.67;22.33;;;;;-1.02;71.07;97771.78;4891207;28;104448;-72
2023/01/30 09:18:43;;;;;;;;;33.00;25.00;;;;;-1.06;71.94;97770.41;4917712;28;102248;-72
2023/01/30 09:21:12;;;;;;;;;29.00;25.00;;;;;-1.11;71.51;97766.53;4916708;28;102138;-72
2023/01/30 09:23:39;;;;;;;;;25.33;20.33;;;;;-1.24;72.23;97743.00;4917392;28;102122;-73
2023/01/30 09:26:06;;;;;;;;;27.00;21.67;;;;;-1.13;72.48;97760.53;4917714;28;104080;-71
2023/01/30 09:28:34;;;;;;;;;24.67;21.00;;;;;-0.99;71.47;97746.78;4920873;28;102256;-71
2023/01/30 09:31:01;;;;;;;;;18.67;14.67;;;;;-0.90;70.71;97748.50;4919427;28;102206;-72
2023/01/30 09:33:29;;;;;;;;;22.33;21.00;;;;;-0.86;71.63;97739.28;4919480;28;102424;-71
2023/01/30 09:35:56;;;;;;;;;23.33;19.00;;;;;-0.85;71.28;97746.25;4917884;28;104084;-72
2023/01/30 09:38:23;;;;;;;;;22.00;19.00;;;;;-0.86;71.83;97735.78;4917894;28;102400;-72
2023/01/30 09:40:59;;;;;;;;;28.33;21.67;;;;;-0.90;71.52;97727.28;4917759;28;101988;-73
2023/01/30 09:43:52;;;;;;;;;22.33;16.00;;;;;-0.90;72.38;97738.72;4913882;28;102444;-72
2023/01/30 09:46:35;;;;;;;;;27.67;23.00;;;;;-1.11;72.31;97724.91;4904127;28;109699;-71
2023/01/30 09:49:41;;;;;;;;;26.67;22.33;;;;;-1.08;73.50;97724.59;4919274;28;102320;-71
2023/01/30 09:52:34;;;;;;;;;27.00;19.00;;;;;-0.97;73.77;97707.66;4916126;28;102000;-71
2023/01/30 09:55:13;;;;;;;;;26.00;21.33;;;;;-0.95;73.76;97701.22;4912505;28;102430;-71
2023/01/30 09:57:40;;;;;;;;;31.00;24.67;;;;;-0.91;74.99;97697.28;4916156;28;108841;-71
2023/01/30 10:00:22;;;;;;;;;29.00;21.67;;;;;-0.84;74.21;97694.84;4915712;28;102187;-72
2023/01/30 10:03:07;;;;;;;;;29.67;23.67;;;;;-0.75;74.00;97688.63;4917812;28;102024;-72
2023/01/30 10:05:43;;;;;;;;;30.00;27.00;;;;;-0.72;74.30;97690.16;4919064;28;102127;-72
2023/01/30 10:08:42;;;;;;;;;32.00;25.00;;;;;-0.81;75.70;97691.88;4914631;28;108728;-71
2023/01/30 10:11:34;;;;;;;;;19.33;11.00;;;;;-0.75;74.57;97670.03;4913489;28;102513;-72
2023/01/30 10:14:10;;;;;;;;;23.33;21.00;;;;;-0.79;75.31;97673.16;4908545;28;103248;-71
2023/01/30 10:17:11;;;;;;;;;33.00;23.00;;;;;-0.66;75.05;97655.84;4917068;28;101988;-72
2023/01/30 10:20:31;;;;;;;;;22.33;19.67;;;;;-0.72;73.80;97671.56;4913307;28;108740;-71
2023/01/30 10:23:32;;;;;;;;;24.33;21.33;;;;;-0.67;74.58;97663.94;4870361;28;102365;-72
2023/01/30 10:26:13;;;;;;;;;24.00;20.00;;;;;-0.65;74.76;97648.72;4905692;28;102354;-72
2023/01/30 10:28:51;;;;;;;;;25.67;21.67;;;;;-0.70;75.25;97659.81;4905546;28;102447;-71
2023/01/30 10:31:56;;;;;;;;;19.67;12.67;;;;;-0.69;76.69;97642.06;4914039;28;108675;-71
2023/01/30 10:34:35;;;;;;;;;37.00;29.33;;;;;-0.84;77.13;97652.38;4893962;28;102429;-71
2023/01/30 10:37:23;;;;;;;;;35.33;25.00;;;;;-0.99;78.70;97625.56;4916837;28;102323;-72
2023/01/30 10:40:36;;;;;;;;;25.67;21.00;;;;;-0.91;79.88;97624.81;4914475;28;102129;-71
2023/01/30 10:43:11;;;;;;;;;31.33;24.33;;;;;-0.91;80.58;97620.34;4915066;28;108624;-71
2023/01/30 10:45:45;;;;;;;;;29.67;23.00;;;;;-0.88;81.34;97618.34;4914680;28;102534;-71
2023/01/30 10:48:37;;;;;;;;;26.67;25.00;;;;;-1.12;82.17;97616.31;4906073;28;101990;-73
2023/01/30 10:51:27;;;;;;;;;44.00;27.67;;;;;-1.14;83.88;97610.34;4916911;28;102473;-71
2023/01/30 10:54:04;;;;;;;;;28.67;26.33;;;;;-1.07;84.35;97606.91;4916871;28;103973;-72
2023/01/30 10:56:31;;;;;;;;;27.33;22.00;;;;;-1.07;85.05;97598.13;4907676;28;102118;-72
2023/01/30 10:59:10;;;;;;;;;33.33;22.67;;;;;-1.41;84.84;97544.97;4917128;28;102099;-72
2023/01/30 11:01:43;;;;;;;;;28.67;25.33;;;;;-1.07;86.05;97603.44;4916408;28;102300;-72
2023/01/30 11:04:55;;;;;;;;;38.33;27.00;;;;;-1.03;84.57;97605.63;4916466;28;104188;-72
2023/01/30 11:07:22;;;;;;;;;29.33;23.00;;;;;-1.02;85.76;97588.72;4914687;28;103058;-72
2023/01/30 11:09:49;;;;;;;;;27.00;22.33;;;;;-0.95;85.35;97603.06;4914936;28;102238;-71
2023/01/30 11:12:16;;;;;;;;;24.67;20.67;;;;;-0.92;85.44;97592.13;4915208;28;110559;-71
2023/01/30 11:14:55;;;;;;;;;33.00;25.00;;;;;-0.96;85.33;97587.28;4917240;28;104125;-71
2023/01/30 11:17:31;;;;;;;;;31.33;26.33;;;;;-0.99;85.12;97595.56;4912509;28;102124;-71
2023/01/30 11:20:04;;;;;;;;;55.67;42.67;;;;;-1.04;85.04;97582.75;4908773;28;101987;-71
2023/01/30 11:22:34;;;;;;;;;48.67;37.33;;;;;-1.10;86.35;97570.09;4918544;28;102062;-71
2023/01/30 11:25:13;;;;;;;;;43.00;34.33;;;;;-1.07;84.67;97567.13;4915177;28;104060;-71
2023/01/30 11:27:43;;;;;;;;;35.67;30.33;;;;;-0.99;85.27;97551.28;4912529;28;102113;-71
2023/01/30 11:30:18;;;;;;;;;43.67;32.67;;;;;-1.00;84.43;97567.38;4916228;28;102010;-71
2023/01/30 11:32:48;;;;;;;;;42.00;33.33;;;;;-0.94;83.52;97551.66;4917088;28;102199;-71
2023/01/30 11:35:15;;;;;;;;;36.67;29.00;;;;;-0.89;84.42;97564.44;4915856;28;104198;-71
2023/01/30 11:37:44;;;;;;;;;35.33;28.00;;;;;-0.84;84.20;97556.84;4916233;28;102163;-72